TAF KGTF
KGTF 280549Z 2806/2906 23023G35KT P6SM SCT090 BKN150 WS020/25045KT FM281000 23026G42KT 6SM BLDU SCT100 BKN180 FM281600 24032G50KT 6SM BLDU SCT120 BKN250 FM290300 24026G42KT 6SM BLDU SCT100 BKN180=
METAR KGTF
WC KGTF
WS KGTF
WV KGTF